Phoenix-Mesa-Gateway Airport
KIWA : now visible

Airfield :











YOU CAN JOIN US ON...

 
LOGIN :

Register | Disclaimer

   EN    FR    IT 

 









Legend :    VFR   Marginal VFR   IFR   Intensive IFR   Very Intensive IFR
Visi :
Ceiling :
>= 8 km
>= 3000ft
5 to 8 km
1000 to 3000 ft
1500m to 5 km
500 to 1000 ft
800 to 1500m
200 to 500 ft
< 800m
< 200 ft
Symbols :   Thunderstorms  Fog  Heavy snow  Heavy precipitations  Wind > 20 kt






- Airport Elevation : 1382 ft


KIWA - Phoenix-Mesa-Gateway

CURRENT METAR :
  • 190150Z 0000KT 10SM SCT250 22/M05 A2990

EXPIRED METARs :
  • 190055Z 29003KT 10SM SCT250 23/M05 A2989
  • 182350Z 32005KT 10SM SCT250 26/M06 A2988

TAF KIWA
Valid from the 19 at 00:00 until the 20 at 00:00 UTC


182320Z 1900/1924 29004KT P6SM SCT250
FM190300 11004KT P6SM OVC250
FM191200 12006KT P6SM BKN100 OVC200
FM192000 14008KT P6SM VCSH SCT060 OVC090



MET'MAP, your aeronautical weather chart ! - Copyright ORBIFLY December 2007 - Disclaimer

ORBIFLY MET'MAP TEAM :

Programming & Development : Alexandra Zaïnal
Concept & Development : Baudouin d'Aumeries
Co-Development & Prog : Marc-Olivier Méhu
Technical & hardware support : Manuel Goepfert

Contact : metmap@orbifly.com




SOURCES & CREDITS :

   NOAA       Earth
Advisory